Time;durP1;ratioP1;P1;durP2;ratioP2;P2;SDS_P1;SDS_P2;PMS_P1;PMS_P2;Temp;Humidity;BMP_temperature;BMP_pressure;BME280_temperature;BME280_humidity;BME280_pressure;Samples;Min_cycle;Max_cycle;Signal;HPM_P1;HPM_P2
2021/07/31 00:01:40;;;;;;;;;3.75;3.00;;;;;18.61;63.24;100790.78;5060537;28;45254;-67
2021/07/31 00:04:06;;;;;;;;;3.75;3.50;;;;;18.58;62.89;100786.56;5060414;28;45464;-67
2021/07/31 00:06:31;;;;;;;;;5.00;4.50;;;;;18.57;63.04;100791.91;5057231;28;45442;-67
2021/07/31 00:08:57;;;;;;;;;4.50;4.00;;;;;18.54;63.57;100792.94;5053915;28;45819;-67
2021/07/31 00:11:22;;;;;;;;;2.00;1.75;;;;;18.55;63.18;100795.47;5060095;28;45442;-67
2021/07/31 00:13:48;;;;;;;;;4.50;2.50;;;;;18.52;63.82;100789.56;5057230;28;45419;-67
2021/07/31 00:16:13;;;;;;;;;1.50;1.50;;;;;18.44;64.03;100792.66;5059204;28;45271;-67
2021/07/31 00:18:39;;;;;;;;;3.75;3.75;;;;;18.39;63.90;100792.06;5058532;28;45811;-67
2021/07/31 00:21:04;;;;;;;;;3.00;3.00;;;;;18.38;64.39;100793.00;5059011;28;45408;-67
2021/07/31 00:23:29;;;;;;;;;11.50;10.50;;;;;18.36;64.62;100794.03;5057695;28;45506;-67
2021/07/31 00:25:55;;;;;;;;;12.50;12.25;;;;;18.34;63.90;100791.50;5059443;28;45319;-67
2021/07/31 00:28:22;;;;;;;;;2.50;2.50;;;;;18.31;64.81;100804.84;5058305;28;45513;-67
2021/07/31 00:30:47;;;;;;;;;6.00;3.00;;;;;18.26;64.80;100796.38;5060222;28;45449;-67
2021/07/31 00:33:13;;;;;;;;;4.25;3.25;;;;;18.23;65.21;100800.03;5058549;28;45294;-67
2021/07/31 00:35:38;;;;;;;;;2.75;2.75;;;;;18.21;64.66;100801.03;5058579;28;45338;-64
2021/07/31 00:38:04;;;;;;;;;3.50;1.00;;;;;18.17;65.42;100795.09;5058595;28;47541;-64
2021/07/31 00:40:29;;;;;;;;;3.00;2.00;;;;;18.16;65.26;100787.31;5059384;28;45360;-64
2021/07/31 00:42:56;;;;;;;;;3.50;2.75;;;;;18.16;64.54;100797.81;5068598;28;45357;-64
2021/07/31 00:45:21;;;;;;;;;2.00;2.00;;;;;18.19;64.51;100797.63;5071413;27;45205;-63
2021/07/31 00:47:47;;;;;;;;;3.00;3.00;;;;;18.20;64.54;100801.97;5048525;28;45964;-63
2021/07/31 00:50:14;;;;;;;;;3.00;2.00;;;;;18.20;65.22;100794.06;5052946;28;45521;-64
2021/07/31 00:52:40;;;;;;;;;1.00;0.00;;;;;18.13;65.89;100792.75;5045132;28;45555;-64
2021/07/31 00:55:08;;;;;;;;;2.75;2.00;;;;;18.10;65.65;100799.03;5053089;28;45588;-64
2021/07/31 00:57:36;;;;;;;;;4.00;3.75;;;;;18.03;65.97;100807.38;5051565;28;46708;-64
2021/07/31 01:00:03;;;;;;;;;3.50;3.00;;;;;18.03;65.79;100799.50;5052132;28;45581;-65
2021/07/31 01:02:28;;;;;;;;;2.00;2.00;;;;;17.99;66.47;100796.16;5049702;28;45386;-65
2021/07/31 01:04:53;;;;;;;;;2.25;2.25;;;;;17.93;66.96;100797.38;5058601;28;45391;-65
2021/07/31 01:07:19;;;;;;;;;4.50;2.50;;;;;17.91;66.65;100795.75;5059121;28;46213;-65
2021/07/31 01:09:44;;;;;;;;;3.00;3.00;;;;;17.89;67.38;100795.00;5059261;28;45372;-65
2021/07/31 01:12:10;;;;;;;;;2.00;2.00;;;;;17.87;66.99;100795.09;5059383;28;45318;-66
2021/07/31 01:14:35;;;;;;;;;2.00;2.00;;;;;17.87;67.75;100802.97;5059241;28;45427;-65
2021/07/31 01:17:00;;;;;;;;;2.50;1.75;;;;;17.87;67.43;100797.72;5059217;28;45943;-65
2021/07/31 01:19:26;;;;;;;;;5.25;2.00;;;;;17.85;67.98;100794.34;5058508;28;45224;-65
2021/07/31 01:21:51;;;;;;;;;2.00;2.00;;;;;17.83;68.20;100798.84;5059230;28;45341;-65
2021/07/31 01:24:16;;;;;;;;;3.00;2.00;;;;;17.81;68.03;100800.69;5059186;28;45463;-65
2021/07/31 01:26:45;;;;;;;;;3.00;3.00;;;;;17.82;68.35;100810.28;5059048;28;46233;-65
2021/07/31 01:29:12;;;;;;;;;4.00;2.25;;;;;17.82;67.75;100805.03;5057846;28;46183;-65
2021/07/31 01:31:37;;;;;;;;;4.00;2.50;;;;;17.83;68.22;100801.47;5059432;28;45302;-65
2021/07/31 01:34:04;;;;;;;;;3.75;2.50;;;;;17.80;68.65;100801.63;5058610;28;45462;-65
2021/07/31 01:36:29;;;;;;;;;6.75;3.25;;;;;17.75;69.27;100803.66;5061131;28;45335;-65
2021/07/31 01:38:58;;;;;;;;;4.00;3.00;;;;;17.72;69.84;100795.09;5061129;28;45339;-65
2021/07/31 01:41:24;;;;;;;;;5.00;4.00;;;;;17.69;69.37;100797.91;5060634;28;45430;-65
2021/07/31 01:43:51;;;;;;;;;2.00;2.00;;;;;17.69;70.04;100801.38;5059971;28;45334;-65
2021/07/31 01:46:17;;;;;;;;;5.00;3.50;;;;;17.70;70.14;100795.19;5059930;28;46420;-65
2021/07/31 01:48:42;;;;;;;;;5.25;3.50;;;;;17.68;70.69;100804.09;5059859;28;45464;-64
2021/07/31 01:51:07;;;;;;;;;4.00;3.00;;;;;17.60;70.51;100799.22;5062427;28;45402;-65
2021/07/31 01:53:33;;;;;;;;;4.50;3.50;;;;;17.59;70.66;100801.00;5061786;28;45623;-65
2021/07/31 01:55:58;;;;;;;;;4.25;3.00;;;;;17.58;70.28;100801.09;5062173;28;46117;-65
2021/07/31 01:58:23;;;;;;;;;4.50;3.00;;;;;17.56;70.72;100793.28;5061969;28;45329;-65
2021/07/31 02:00:51;;;;;;;;;2.00;0.50;;;;;17.52;71.45;100802.28;5062401;28;45259;-65
2021/07/31 02:03:16;;;;;;;;;4.75;4.50;;;;;17.50;71.52;100798.91;5062031;28;45449;-65
2021/07/31 02:05:42;;;;;;;;;4.75;4.00;;;;;17.47;71.71;100808.75;5061925;28;45397;-65
2021/07/31 02:08:07;;;;;;;;;7.00;5.00;;;;;17.45;71.19;100803.56;5061593;28;45346;-66
2021/07/31 02:10:32;;;;;;;;;4.75;3.00;;;;;17.47;71.87;100806.13;5062266;28;45393;-66
2021/07/31 02:12:58;;;;;;;;;3.00;3.00;;;;;17.40;72.25;100796.84;5061740;28;45448;-66
2021/07/31 02:15:23;;;;;;;;;5.00;3.00;;;;;17.39;72.92;100806.50;5062265;28;45440;-66
2021/07/31 02:17:48;;;;;;;;;5.00;4.00;;;;;17.35;72.21;100799.72;5061745;28;45245;-66
2021/07/31 02:20:14;;;;;;;;;4.00;4.00;;;;;17.35;72.74;100797.09;5061456;28;45500;-65
2021/07/31 02:22:39;;;;;;;;;6.75;4.50;;;;;17.34;72.27;100796.25;5060090;28;45495;-65
2021/07/31 02:25:05;;;;;;;;;5.25;4.50;;;;;17.36;72.33;100800.59;5059299;28;46251;-65
2021/07/31 02:27:30;;;;;;;;;3.50;3.50;;;;;17.28;73.64;100793.97;5059173;28;45471;-64
2021/07/31 02:29:55;;;;;;;;;3.00;3.00;;;;;17.29;73.77;100794.81;5059348;28;45303;-65
2021/07/31 02:32:21;;;;;;;;;6.00;4.00;;;;;17.29;73.54;100800.94;5059169;28;45576;-66
2021/07/31 02:34:49;;;;;;;;;6.00;3.75;;;;;17.31;72.64;100792.97;5059509;28;46112;-65
2021/07/31 02:37:14;;;;;;;;;4.75;4.25;;;;;17.32;72.58;100789.41;5058722;28;45425;-66
2021/07/31 02:39:39;;;;;;;;;3.75;3.50;;;;;17.32;72.80;100798.13;5061486;28;45301;-64
2021/07/31 02:42:05;;;;;;;;;2.00;1.25;;;;;17.32;72.80;100797.28;5065286;28;45336;-64
2021/07/31 02:44:30;;;;;;;;;5.25;3.50;;;;;17.33;73.34;100791.94;5068671;28;46176;-63
2021/07/31 02:46:55;;;;;;;;;5.75;4.25;;;;;17.30;72.95;100789.50;5060644;28;45418;-66
2021/07/31 02:49:21;;;;;;;;;7.50;5.00;;;;;17.26;73.74;100785.34;5061381;28;45450;-65
2021/07/31 02:51:48;;;;;;;;;4.00;3.00;;;;;17.28;73.30;100790.50;5061212;28;45228;-65
2021/07/31 02:54:14;;;;;;;;;5.00;2.50;;;;;17.26;73.27;100792.38;5059054;28;46985;-66
2021/07/31 02:56:39;;;;;;;;;3.00;3.00;;;;;17.23;73.27;100793.38;5060682;28;45364;-66
2021/07/31 02:59:04;;;;;;;;;3.75;3.50;;;;;17.19;73.68;100786.59;5061446;28;45225;-64
2021/07/31 03:01:30;;;;;;;;;4.75;3.00;;;;;17.19;74.17;100788.34;5060044;28;45608;-64
2021/07/31 03:03:56;;;;;;;;;4.25;3.50;;;;;17.17;74.15;100791.06;5061146;28;46126;-64
2021/07/31 03:06:21;;;;;;;;;4.25;3.00;;;;;17.15;73.70;100782.44;5060735;28;45233;-64
2021/07/31 03:08:46;;;;;;;;;4.00;2.00;;;;;17.17;73.92;100782.34;5060885;28;45291;-64
2021/07/31 03:11:12;;;;;;;;;3.50;3.00;;;;;17.16;73.87;100783.28;5058492;28;45581;-64
2021/07/31 03:13:37;;;;;;;;;4.50;3.25;;;;;17.13;73.86;100779.03;5057836;28;46176;-64
2021/07/31 03:16:05;;;;;;;;;5.50;4.00;;;;;17.12;74.38;100787.84;5057149;28;45769;-64
2021/07/31 03:18:30;;;;;;;;;4.00;2.75;;;;;17.10;75.30;100788.88;5058310;28;45666;-64
2021/07/31 03:20:55;;;;;;;;;5.25;3.25;;;;;17.06;74.84;100785.56;5057483;28;45439;-64
2021/07/31 03:23:23;;;;;;;;;2.00;2.00;;;;;17.06;74.70;100788.19;5057800;28;46157;-64
2021/07/31 03:25:48;;;;;;;;;5.50;3.75;;;;;17.06;75.56;100793.44;5058131;28;45487;-63
2021/07/31 03:28:15;;;;;;;;;5.25;4.00;;;;;17.00;75.88;100791.97;5060341;28;45241;-64
2021/07/31 03:30:45;;;;;;;;;3.00;3.00;;;;;16.95;76.30;100796.63;5059554;28;45287;-64
2021/07/31 03:33:12;;;;;;;;;3.75;3.50;;;;;16.93;76.15;100790.63;5060242;28;45657;-64
2021/07/31 03:35:39;;;;;;;;;3.50;3.00;;;;;16.90;76.51;100793.41;5059580;28;45230;-63
2021/07/31 03:38:05;;;;;;;;;4.00;4.00;;;;;16.85;77.17;100802.47;5060096;28;45243;-64
2021/07/31 03:40:30;;;;;;;;;4.75;3.00;;;;;16.83;76.93;100799.91;5059363;28;45337;-62
2021/07/31 03:42:55;;;;;;;;;3.00;1.25;;;;;16.80;76.66;100788.69;5060472;28;45230;-63
2021/07/31 03:45:21;;;;;;;;;5.00;3.25;;;;;16.80;77.19;100783.44;5058298;28;45387;-63
2021/07/31 03:47:46;;;;;;;;;4.50;4.00;;;;;16.79;77.07;100790.47;5060814;28;45252;-62
2021/07/31 03:50:12;;;;;;;;;3.50;3.00;;;;;16.79;77.92;100787.00;5060305;28;45192;-63
2021/07/31 03:52:37;;;;;;;;;5.50;3.75;;;;;16.79;77.09;100792.25;5060448;28;45242;-63
2021/07/31 03:55:05;;;;;;;;;5.00;4.00;;;;;16.77;77.84;100789.72;5060119;28;45398;-63
2021/07/31 03:57:30;;;;;;;;;5.00;3.00;;;;;16.76;77.64;100795.91;5059587;28;45318;-63
2021/07/31 03:59:55;;;;;;;;;3.25;3.00;;;;;16.67;78.48;100799.00;5060243;28;45392;-64
2021/07/31 04:02:21;;;;;;;;;4.25;2.00;;;;;16.65;78.60;100799.06;5060307;28;45350;-64
2021/07/31 04:04:46;;;;;;;;;4.25;2.75;;;;;16.66;78.18;100806.03;5060401;28;45297;-63
2021/07/31 04:07:11;;;;;;;;;5.25;3.00;;;;;16.65;78.68;100806.94;5060122;28;45575;-64
2021/07/31 04:09:37;;;;;;;;;3.50;3.50;;;;;16.66;78.65;100806.03;5059562;28;45468;-64
2021/07/31 04:12:02;;;;;;;;;2.75;2.75;;;;;16.65;79.18;100804.31;5059828;28;45230;-64
2021/07/31 04:14:29;;;;;;;;;5.00;3.00;;;;;16.65;78.86;100801.69;5058772;28;45477;-64
2021/07/31 04:16:56;;;;;;;;;7.25;3.75;;;;;16.69;77.79;100805.88;5059548;28;45235;-63
2021/07/31 04:19:21;;;;;;;;;3.25;3.00;;;;;16.74;78.20;100813.50;5058620;28;45605;-64
2021/07/31 04:21:51;;;;;;;;;3.75;3.50;;;;;16.78;78.32;100806.31;5059123;28;46889;-63
2021/07/31 04:24:16;;;;;;;;;2.00;2.00;;;;;16.79;78.09;100800.97;5058216;28;45314;-64
2021/07/31 04:26:41;;;;;;;;;3.00;2.00;;;;;16.78;78.20;100804.53;5057116;28;45607;-63
2021/07/31 04:29:07;;;;;;;;;3.50;2.75;;;;;16.77;78.93;100813.34;5056188;28;45528;-64
2021/07/31 04:31:32;;;;;;;;;4.50;4.00;;;;;16.75;78.92;100809.09;5057263;28;46435;-64
2021/07/31 04:33:57;;;;;;;;;3.75;3.25;;;;;16.76;78.61;100816.88;5056710;28;45414;-64
2021/07/31 04:36:23;;;;;;;;;7.00;6.25;;;;;16.78;79.27;100815.03;5057680;28;45474;-64
2021/07/31 04:38:48;;;;;;;;;4.50;4.50;;;;;16.79;78.92;100816.72;5056162;28;45507;-64
2021/07/31 04:41:13;;;;;;;;;4.50;4.00;;;;;16.79;79.02;100821.13;5059590;28;45710;-64
2021/07/31 04:43:39;;;;;;;;;4.25;3.00;;;;;16.78;79.59;100819.44;5059280;28;45228;-64
2021/07/31 04:46:04;;;;;;;;;5.25;3.00;;;;;16.78;79.08;100822.91;5058985;28;45335;-64
2021/07/31 04:48:29;;;;;;;;;4.75;4.75;;;;;16.80;78.66;100809.69;5059577;28;45531;-64
2021/07/31 04:50:57;;;;;;;;;6.00;5.00;;;;;16.79;79.30;100806.22;5059463;28;46430;-64
2021/07/31 04:53:23;;;;;;;;;6.50;4.75;;;;;16.80;78.54;100809.69;5059572;28;45392;-64
2021/07/31 04:55:48;;;;;;;;;3.25;3.00;;;;;16.80;79.93;100813.16;5059875;28;45409;-64
2021/07/31 04:58:13;;;;;;;;;6.50;3.50;;;;;16.80;79.62;100817.56;5058948;28;50379;-64
2021/07/31 05:00:39;;;;;;;;;3.75;3.00;;;;;16.78;80.45;100819.44;5059681;28;47690;-64
2021/07/31 05:03:06;;;;;;;;;4.00;2.75;;;;;16.79;80.26;100815.88;5059373;28;45405;-64
2021/07/31 05:05:33;;;;;;;;;4.75;4.75;;;;;16.81;80.08;100816.66;5059629;28;45305;-64
2021/07/31 05:07:58;;;;;;;;;5.00;5.00;;;;;16.86;79.38;100817.28;5059048;28;45240;-64
2021/07/31 05:10:24;;;;;;;;;7.25;4.00;;;;;16.91;79.33;100812.63;5062793;28;46192;-64
2021/07/31 05:12:49;;;;;;;;;4.00;3.00;;;;;16.94;79.50;100825.59;5062715;28;45217;-64
2021/07/31 05:15:14;;;;;;;;;3.50;3.25;;;;;16.92;79.43;100814.31;5063041;28;45421;-64
2021/07/31 05:17:40;;;;;;;;;6.25;6.00;;;;;16.94;79.88;100813.31;5061218;28;45545;-64
2021/07/31 05:20:05;;;;;;;;;6.25;4.00;;;;;16.96;79.67;100816.69;5062628;28;47091;-64
2021/07/31 05:22:31;;;;;;;;;5.00;5.00;;;;;16.98;79.20;100817.47;5062992;28;45419;-64
2021/07/31 05:24:56;;;;;;;;;3.00;3.00;;;;;17.02;79.29;100826.91;5063014;28;45193;-64
2021/07/31 05:27:21;;;;;;;;;5.25;5.25;;;;;17.07;79.58;100823.19;5062268;28;48721;-64
2021/07/31 05:29:46;;;;;;;;;5.00;4.75;;;;;17.11;79.25;100824.69;5062790;28;45336;-64
2021/07/31 05:32:12;;;;;;;;;4.50;4.00;;;;;17.11;79.10;100822.94;5061256;28;45966;-64
2021/07/31 05:34:38;;;;;;;;;5.25;3.00;;;;;17.11;79.36;100824.69;5062736;28;45223;-64
2021/07/31 05:37:03;;;;;;;;;4.25;4.25;;;;;17.15;79.08;100823.59;5062047;28;45444;-64
2021/07/31 05:39:33;;;;;;;;;5.00;4.75;;;;;17.12;79.41;100819.38;5062666;28;45288;-64
2021/07/31 05:41:59;;;;;;;;;7.00;5.00;;;;;17.16;78.85;100820.03;5062584;28;45263;-62
2021/07/31 05:44:24;;;;;;;;;9.00;5.50;;;;;17.22;78.62;100820.59;5062693;28;45228;-64
2021/07/31 05:46:49;;;;;;;;;5.25;4.00;;;;;17.29;78.51;100823.72;5062212;28;45164;-64
2021/07/31 05:49:15;;;;;;;;;5.75;3.75;;;;;17.32;78.24;100826.19;5062212;28;45287;-64
2021/07/31 05:51:40;;;;;;;;;5.75;4.00;;;;;17.38;78.51;100825.00;5061975;28;45227;-64
2021/07/31 05:54:05;;;;;;;;;7.75;5.00;;;;;17.39;78.22;100826.69;5062158;28;47057;-63
2021/07/31 05:56:31;;;;;;;;;5.00;4.50;;;;;17.39;78.27;100821.44;5062301;28;45346;-64
2021/07/31 05:58:56;;;;;;;;;4.75;4.75;;;;;17.46;78.08;100833.31;5062135;28;45358;-64
2021/07/31 06:01:21;;;;;;;;;10.75;7.75;;;;;17.44;78.61;100830.78;5062211;28;45228;-64
2021/07/31 06:03:47;;;;;;;;;5.75;5.00;;;;;17.47;78.30;100830.59;5062393;28;45206;-64
2021/07/31 06:06:13;;;;;;;;;9.00;6.75;;;;;17.54;77.87;100836.38;5061818;28;45337;-63
2021/07/31 06:08:38;;;;;;;;;6.00;4.75;;;;;17.55;78.01;100832.81;5061601;28;45320;-64
2021/07/31 06:11:05;;;;;;;;;6.75;6.00;;;;;17.56;77.95;100837.97;5061768;28;45310;-64
2021/07/31 06:13:32;;;;;;;;;5.25;4.00;;;;;17.57;77.77;100842.28;5061973;28;45447;-64
2021/07/31 06:15:57;;;;;;;;;9.25;6.75;;;;;17.64;77.25;100848.94;5061826;28;45282;-64
2021/07/31 06:18:24;;;;;;;;;4.50;4.25;;;;;17.74;77.39;100844.03;5062419;28;46121;-64
2021/07/31 06:20:49;;;;;;;;;8.00;5.75;;;;;17.79;77.17;100839.34;5060980;28;45223;-64
2021/07/31 06:23:15;;;;;;;;;5.75;4.50;;;;;17.84;76.68;100839.97;5062068;28;45239;-63
2021/07/31 06:25:40;;;;;;;;;5.50;5.00;;;;;17.92;76.57;100843.00;5060847;28;45419;-64
2021/07/31 06:28:06;;;;;;;;;7.25;6.00;;;;;18.00;76.33;100841.72;5061740;28;46989;-63
2021/07/31 06:30:31;;;;;;;;;5.00;3.00;;;;;18.04;75.65;100848.53;5061623;28;45350;-64
2021/07/31 06:32:56;;;;;;;;;5.00;4.25;;;;;18.08;75.77;100847.41;5061915;28;45448;-63
2021/07/31 06:35:22;;;;;;;;;5.00;5.00;;;;;18.12;75.89;100855.03;5061293;28;45458;-64
2021/07/31 06:37:47;;;;;;;;;6.25;5.25;;;;;18.12;75.24;100856.81;5061324;28;45401;-64
2021/07/31 06:40:12;;;;;;;;;8.00;7.00;;;;;18.11;75.38;100852.47;5061619;28;45437;-63
2021/07/31 06:42:38;;;;;;;;;9.00;5.00;;;;;18.16;75.35;100853.06;5061762;28;45353;-64
2021/07/31 06:45:03;;;;;;;;;4.50;4.50;;;;;18.22;74.82;100847.47;5061135;28;45517;-64
2021/07/31 06:47:29;;;;;;;;;5.00;3.50;;;;;18.29;74.50;100850.59;5061349;28;45414;-64
2021/07/31 06:49:54;;;;;;;;;6.25;6.00;;;;;18.34;74.34;100854.63;5061487;28;45331;-64
2021/07/31 06:52:19;;;;;;;;;7.75;5.00;;;;;18.32;73.57;100847.78;5061231;28;45223;-64
2021/07/31 06:54:45;;;;;;;;;7.50;6.00;;;;;18.30;73.91;100852.28;5061178;28;45436;-64
2021/07/31 06:57:11;;;;;;;;;9.50;5.00;;;;;18.35;74.01;100850.22;5060573;28;45331;-64
2021/07/31 06:59:37;;;;;;;;;5.75;5.50;;;;;18.43;73.10;100848.00;5061304;28;45452;-62
2021/07/31 07:02:03;;;;;;;;;6.75;5.00;;;;;18.46;72.74;100856.56;5060877;28;45259;-64
2021/07/31 07:04:28;;;;;;;;;3.75;3.75;;;;;18.46;72.52;100839.94;5061093;28;45409;-64
2021/07/31 07:06:53;;;;;;;;;5.50;5.25;;;;;18.48;71.85;100852.06;5060182;28;45290;-64
2021/07/31 07:09:19;;;;;;;;;6.00;6.00;;;;;18.52;71.87;100856.19;5061226;28;45406;-64
2021/07/31 07:11:44;;;;;;;;;5.75;5.50;;;;;18.61;71.27;100859.22;5060725;28;45481;-64
2021/07/31 07:14:10;;;;;;;;;7.00;5.25;;;;;18.64;71.24;100861.72;5060931;28;45547;-63
2021/07/31 07:16:35;;;;;;;;;5.75;5.75;;;;;18.75;71.03;100867.19;5060637;28;46617;-64
2021/07/31 07:19:01;;;;;;;;;6.75;6.00;;;;;18.80;70.61;100868.59;5060960;28;45273;-64
2021/07/31 07:21:26;;;;;;;;;7.00;7.00;;;;;18.90;70.29;100868.91;5060675;28;45254;-64
2021/07/31 07:23:52;;;;;;;;;7.00;5.25;;;;;18.97;69.59;100867.59;5061092;28;45330;-64
2021/07/31 07:26:17;;;;;;;;;5.00;5.00;;;;;19.01;69.19;100866.47;5060437;28;46184;-64
2021/07/31 07:28:44;;;;;;;;;4.75;4.50;;;;;19.07;69.27;100875.81;5060904;28;45443;-64
2021/07/31 07:31:11;;;;;;;;;7.25;4.75;;;;;19.14;68.56;100885.03;5060372;28;45309;-64
2021/07/31 07:33:37;;;;;;;;;6.75;5.00;;;;;19.18;68.40;100880.41;5059600;28;45309;-64
2021/07/31 07:36:12;;;;;;;;;7.25;6.00;;;;;19.13;68.04;100883.31;5060296;28;46618;-64
2021/07/31 07:38:38;;;;;;;;;5.00;5.00;;;;;19.10;68.03;100886.16;5060310;28;45420;-64
2021/07/31 07:41:06;;;;;;;;;7.50;6.00;;;;;19.15;68.11;100887.56;5061013;28;45651;-64
2021/07/31 07:43:31;;;;;;;;;6.75;6.75;;;;;19.21;68.13;100878.41;5060158;28;45242;-64
2021/07/31 07:45:56;;;;;;;;;7.75;6.25;;;;;19.34;67.71;100883.81;5060403;28;46227;-64
2021/07/31 07:48:22;;;;;;;;;9.25;6.25;;;;;19.45;67.40;100884.00;5060390;28;45279;-63
2021/07/31 07:50:47;;;;;;;;;4.50;4.50;;;;;19.57;66.92;100883.25;5060325;28;47767;-63
2021/07/31 07:53:12;;;;;;;;;7.50;6.25;;;;;19.71;65.78;100885.03;5059862;28;46009;-63
2021/07/31 07:55:38;;;;;;;;;5.00;5.00;;;;;19.70;66.06;100880.69;5060503;28;45500;-63
2021/07/31 07:58:08;;;;;;;;;7.25;6.50;;;;;19.69;65.12;100886.91;5060001;28;45330;-63
2021/07/31 08:00:33;;;;;;;;;7.50;5.25;;;;;19.72;65.37;100887.56;5060808;28;45381;-63
2021/07/31 08:02:59;;;;;;;;;7.75;5.00;;;;;19.83;64.50;100881.63;5060257;28;45211;-64
2021/07/31 08:05:24;;;;;;;;;7.00;5.50;;;;;20.00;65.12;100878.72;5060134;28;45197;-62
2021/07/31 08:07:49;;;;;;;;;7.25;5.00;;;;;20.18;65.17;100881.13;5059843;28;45450;-63
2021/07/31 08:10:14;;;;;;;;;5.25;4.75;;;;;20.34;63.33;100876.53;5060285;28;45404;-62
2021/07/31 08:12:40;;;;;;;;;5.00;5.00;;;;;20.40;63.90;100880.56;5059930;28;45204;-63
2021/07/31 08:15:06;;;;;;;;;5.50;5.00;;;;;20.41;63.80;100874.34;5059843;28;45831;-63
2021/07/31 08:17:31;;;;;;;;;1.25;1.25;;;;;20.36;63.44;100880.75;5060486;28;45456;-62
2021/07/31 08:19:56;;;;;;;;;6.00;6.00;;;;;20.32;62.86;100881.06;5060257;28;45289;-62
2021/07/31 08:22:22;;;;;;;;;5.00;5.00;;;;;20.34;63.72;100882.66;5059756;28;45547;-63
2021/07/31 08:24:47;;;;;;;;;6.25;5.00;;;;;20.51;63.56;100883.38;5060045;28;45218;-63
2021/07/31 08:27:12;;;;;;;;;6.00;5.00;;;;;20.60;63.08;100882.75;5059671;28;45214;-63
2021/07/31 08:29:38;;;;;;;;;6.00;5.00;;;;;20.70;62.58;100875.91;5060242;28;45946;-63
2021/07/31 08:32:03;;;;;;;;;6.75;4.75;;;;;20.74;60.53;100882.66;5059753;28;45452;-63
2021/07/31 08:34:29;;;;;;;;;8.25;6.00;;;;;20.78;60.70;100876.22;5060112;28;45716;-63
2021/07/31 08:37:00;;;;;;;;;5.00;4.00;;;;;20.94;60.45;100881.31;5059328;28;45377;-64
2021/07/31 08:39:25;;;;;;;;;8.00;5.00;;;;;20.97;59.43;100875.81;5060241;28;45334;-63
2021/07/31 08:41:52;;;;;;;;;4.25;4.25;;;;;21.05;60.43;100878.78;5059573;28;45219;-63
2021/07/31 08:44:18;;;;;;;;;5.00;4.00;;;;;21.15;59.82;100879.84;5061742;28;45489;-63
2021/07/31 08:46:45;;;;;;;;;7.50;4.75;;;;;21.31;60.38;100878.81;5063014;28;45429;-63
2021/07/31 08:49:16;;;;;;;;;4.75;3.00;;;;;21.45;57.82;100882.19;5063273;28;45492;-63
2021/07/31 08:51:44;;;;;;;;;7.75;5.75;;;;;21.47;57.94;100885.56;5062958;28;45231;-63
2021/07/31 08:54:10;;;;;;;;;3.75;3.75;;;;;21.53;57.51;100882.47;5063131;28;47092;-63
2021/07/31 08:56:35;;;;;;;;;6.50;5.25;;;;;21.53;57.04;100887.75;5063085;28;45489;-63
2021/07/31 08:59:01;;;;;;;;;2.25;2.00;;;;;21.51;57.17;100884.38;5063175;28;45374;-63
2021/07/31 09:01:26;;;;;;;;;4.25;4.25;;;;;21.47;57.41;100884.72;5063116;28;45344;-63
2021/07/31 09:03:53;;;;;;;;;4.00;4.00;;;;;21.50;57.49;100882.69;5062972;28;45807;-63
2021/07/31 09:06:25;;;;;;;;;5.00;5.00;;;;;21.60;57.30;100884.66;5062701;28;45173;-63
2021/07/31 09:08:54;;;;;;;;;3.00;3.00;;;;;21.65;56.70;100880.78;5053357;28;45559;-63
2021/07/31 09:11:20;;;;;;;;;5.25;4.25;;;;;21.60;56.83;100890.81;5062870;28;45407;-63
2021/07/31 09:13:46;;;;;;;;;4.50;4.50;;;;;21.49;56.63;100888.94;5062674;28;45248;-64
2021/07/31 09:16:11;;;;;;;;;4.50;4.50;;;;;21.52;57.12;100888.72;5062745;28;45350;-63
2021/07/31 09:18:43;;;;;;;;;5.25;5.25;;;;;21.72;57.53;100886.44;5063030;28;45375;-64
2021/07/31 09:21:17;;;;;;;;;4.50;4.50;;;;;22.05;57.31;100881.41;5063260;28;45348;-63
2021/07/31 09:23:51;;;;;;;;;7.25;5.75;;;;;22.27;56.04;100885.13;5062740;28;45353;-64
2021/07/31 09:26:19;;;;;;;;;5.00;5.00;;;;;22.41;55.75;100882.28;5062659;28;45465;-63
2021/07/31 09:28:56;;;;;;;;;5.75;5.00;;;;;22.41;55.46;100887.56;5062672;28;45461;-63
2021/07/31 09:31:21;;;;;;;;;4.00;4.00;;;;;22.32;54.78;100880.31;5062844;28;45439;-63
2021/07/31 09:33:49;;;;;;;;;5.00;4.75;;;;;22.09;54.10;100874.94;5062317;28;46276;-63
2021/07/31 09:36:16;;;;;;;;;6.00;4.75;;;;;21.96;54.72;100879.38;5062277;28;45614;-64
2021/07/31 09:38:44;;;;;;;;;4.50;4.50;;;;;21.81;55.18;100880.50;5062644;28;45317;-63
2021/07/31 09:41:36;;;;;;;;;5.75;5.00;;;;;21.80;55.05;100876.16;5062575;28;45225;-63
2021/07/31 09:44:10;;;;;;;;;6.00;5.25;;;;;21.88;55.57;100881.75;5062165;28;47169;-63
2021/07/31 09:46:43;;;;;;;;;4.00;3.00;;;;;21.86;54.05;100878.38;5062278;28;45630;-63
2021/07/31 09:49:12;;;;;;;;;2.00;1.50;;;;;21.96;53.62;100875.91;5049284;28;45300;-64
2021/07/31 09:51:40;;;;;;;;;6.50;4.00;;;;;22.03;54.09;100861.28;5062161;28;45381;-64
2021/07/31 09:54:09;;;;;;;;;5.25;5.00;;;;;22.08;52.56;100870.59;5062092;28;47250;-63
2021/07/31 09:57:00;;;;;;;;;3.00;2.75;;;;;22.22;52.59;100858.97;5060855;28;45251;-63
2021/07/31 09:59:26;;;;;;;;;6.00;6.00;;;;;22.37;52.80;100859.63;5060198;28;45196;-63
2021/07/31 10:02:03;;;;;;;;;5.50;4.00;;;;;22.45;52.14;100865.22;5062025;28;45223;-63
2021/07/31 10:04:31;;;;;;;;;4.25;4.00;;;;;22.36;51.80;100855.28;5061883;28;46820;-63
2021/07/31 10:07:02;;;;;;;;;5.00;3.00;;;;;22.21;52.12;100859.09;5061940;28;45409;-64
2021/07/31 10:09:28;;;;;;;;;4.00;4.00;;;;;22.10;52.58;100850.16;5062145;28;45274;-63
2021/07/31 10:11:55;;;;;;;;;4.00;4.00;;;;;22.09;52.46;100848.47;5061782;28;45311;-63
2021/07/31 10:14:23;;;;;;;;;4.00;4.00;;;;;22.15;53.37;100844.50;5060572;28;45465;-63
2021/07/31 10:16:48;;;;;;;;;5.00;4.25;;;;;22.31;53.08;100847.72;5061337;28;45218;-64
2021/07/31 10:19:14;;;;;;;;;11.25;6.00;;;;;22.53;52.52;100838.13;5060609;28;45263;-63
2021/07/31 10:21:52;;;;;;;;;5.00;4.00;;;;;22.82;52.92;100849.19;5061181;28;45530;-63
2021/07/31 10:24:19;;;;;;;;;6.75;5.00;;;;;23.08;50.79;100839.22;5060490;28;47363;-64
2021/07/31 10:27:15;;;;;;;;;5.75;4.50;;;;;23.28;50.03;100841.16;5061188;28;45581;-63
2021/07/31 10:29:47;;;;;;;;;4.50;3.00;;;;;23.38;50.89;100834.16;5050453;28;45487;-63
2021/07/31 10:32:19;;;;;;;;;5.00;5.00;;;;;23.46;50.49;100830.91;5060587;28;45379;-63
2021/07/31 10:34:56;;;;;;;;;5.75;5.25;;;;;23.46;49.71;100830.91;5060728;28;45267;-63
2021/07/31 10:37:28;;;;;;;;;3.75;3.75;;;;;23.43;49.91;100842.59;5059512;28;45467;-63
2021/07/31 10:39:54;;;;;;;;;5.00;3.25;;;;;23.45;49.86;100831.88;5061259;28;45254;-63
2021/07/31 10:42:20;;;;;;;;;5.00;5.00;;;;;23.50;49.79;100829.69;5061349;28;45226;-63
2021/07/31 10:45:17;;;;;;;;;4.50;4.00;;;;;23.62;48.93;100834.03;5061301;28;47101;-63
2021/07/31 10:47:46;;;;;;;;;4.00;4.00;;;;;23.64;48.47;100832.97;5050366;28;45228;-63
2021/07/31 10:50:25;;;;;;;;;9.50;4.25;;;;;23.85;47.31;100830.38;5059836;28;45488;-63
2021/07/31 10:53:08;;;;;;;;;0.50;0.50;;;;;23.97;46.46;100826.69;5061176;28;45482;-63
2021/07/31 10:55:36;;;;;;;;;2.00;2.00;;;;;24.17;46.08;100829.50;5060960;28;47059;-63
2021/07/31 10:58:12;;;;;;;;;4.75;3.25;;;;;24.20;44.70;100823.94;5061007;28;45496;-63
2021/07/31 11:00:52;;;;;;;;;5.75;3.00;;;;;24.36;45.30;100819.06;5061841;28;45172;-63
2021/07/31 11:03:20;;;;;;;;;4.75;4.75;;;;;24.55;46.37;100826.34;5061008;28;45392;-64
2021/07/31 11:05:51;;;;;;;;;4.00;3.75;;;;;24.66;44.39;100828.09;5061092;28;45219;-63
2021/07/31 11:08:20;;;;;;;;;3.00;3.00;;;;;24.63;45.61;100821.22;5060584;28;45358;-63
2021/07/31 11:10:48;;;;;;;;;3.50;3.50;;;;;24.64;44.90;100825.56;5061134;28;45434;-63
2021/07/31 11:13:16;;;;;;;;;6.75;5.00;;;;;24.42;44.52;100820.38;5060725;28;45549;-63
2021/07/31 11:16:00;;;;;;;;;5.50;3.00;;;;;24.20;45.71;100826.59;5060634;28;46351;-63
2021/07/31 11:18:34;;;;;;;;;5.75;5.00;;;;;24.12;44.99;100821.09;5060936;28;45731;-63
2021/07/31 11:21:16;;;;;;;;;4.25;4.00;;;;;24.08;46.09;100825.81;5060759;28;45453;-63
2021/07/31 11:23:51;;;;;;;;;6.50;4.00;;;;;24.07;45.30;100818.81;5061169;28;45214;-63